หน้าหลัก
METAR-TAF:

METAR-TAF

ท่าอากาศยาน :

ออร์ฮูส, เดนมาร์ก

ละติจูด: 56-18N, ลองจิจูด: 010-37E, ความสูง: 23 ม.

การสังเกตสภาพอากาศปัจจุบัน

รายงานได้ทำขึ้นเมื่อ 18 นาทีที่แล้ว ณ เวลา 00:50 UTC
ลมสงบ
อุณหภูมิ 14°C
ความชื้น 88%
ความกดอากาศ 1018 hPa
ทัศนวิสัย 10 กม. หรือมากกว่า

METAR: EKAH 200050Z AUTO 00000KT 9999 NCD 14/12 Q1018

เวลา: 03:08 (01:08 UTC)

การพยากรณ์

รายงานได้ทำขึ้นเมื่อ 2 ชั่วโมงและ 5 นาทีที่แล้ว ณ เวลา 23:03 UTC
การพยากรณ์มีผลตั้งแต่วันที่ 20 ณ เวลา 00 UTC จนถึงวันที่ 20 ณ เวลา 24 UTC
ลม 2 นอตจากทิศทางซึ่งแปรผันได้
ทัศนวิสัย 10 กม. หรือมากกว่า
ไม่มีเมฆต่ำกว่า 1,500 ม. และไม่มีเมฆคิวมูโลนิมบัส
กำลังกลายเป็น
ตั้งแต่วันที่ 20 ณ เวลา 09 UTC จนถึงวันที่ 20 ณ เวลา 12 UTC
ลม 12 นอตจากตะวันออก/ตะวันออกเฉียงใต้

TAF: EKAH 192303Z 2000/2024 VRB02KT CAVOK BECMG 2009/2012 11012KT

สังเกตการณ์สภาพอากาศและพยากรณ์อากาศของสนามบินมากกว่า 4000 แห่ง (รายงาน METAR และ TAF).

สถานีที่ดูได้จะแสดงไว้ด้วยจุดสีเหลืองและสีแดงบนแผนที่.

เลื่อนเมาส์ไปเหนือจุดเพื่อดูชื่อสถานี.

แล้วคลิกเพื่อดูสังเกตการณ์และการพยากรณ์สภาพอากาศ.

ในการเปลี่ยนแผนที่: คลิกที่ปุ่มสีเขียวที่มีกากบาทสีดำเพื่อซูมเข้า; ที่ปุ่มสีเขียวที่มีขีดเพื่อซูมออก; หรือที่ลูกศรสีเขียวเพื่อไปยังแผนที่ที่อยู่ติดกัน.


METAR-TAF: